Time;durP1;ratioP1;P1;durP2;ratioP2;P2;SDS_P1;SDS_P2;PMS_P1;PMS_P2;Temp;Humidity;BMP_temperature;BMP_pressure;BME280_temperature;BME280_humidity;BME280_pressure;Samples;Min_cycle;Max_cycle;Signal;HPM_P1;HPM_P2
2021/12/09 00:00:28;;;;;;;;;2.75;1.75;;;;;20.44;37.11;100119.78;5076599;27;51241;-42
2021/12/09 00:02:53;;;;;;;;;2.00;2.00;;;;;20.43;37.05;100120.88;5068957;27;51542;-42
2021/12/09 00:05:19;;;;;;;;;1.50;1.50;;;;;20.43;36.99;100118.13;5085565;27;51042;-44
2021/12/09 00:07:49;;;;;;;;;2.00;2.00;;;;;20.41;37.13;100117.47;5075665;27;51170;-42
2021/12/09 00:10:15;;;;;;;;;2.00;1.00;;;;;20.40;37.08;100112.22;5079200;27;51248;-43
2021/12/09 00:12:40;;;;;;;;;2.00;2.00;;;;;20.38;37.09;100123.44;5079566;27;51181;-44
2021/12/09 00:15:06;;;;;;;;;2.25;1.00;;;;;20.37;37.17;100121.78;5075819;27;50908;-43
2021/12/09 00:17:32;;;;;;;;;2.25;2.25;;;;;20.37;36.95;100123.69;5072331;28;51112;-41
2021/12/09 00:19:58;;;;;;;;;1.00;1.00;;;;;20.34;37.20;100119.53;5077819;27;51005;-41
2021/12/09 00:22:25;;;;;;;;;2.00;2.00;;;;;20.33;37.03;100119.75;5075825;27;51741;-42
2021/12/09 00:24:50;;;;;;;;;2.00;2.00;;;;;20.32;36.98;100127.19;5077184;27;51183;-41
2021/12/09 00:27:16;;;;;;;;;1.00;1.00;;;;;20.32;37.16;100127.19;5081748;27;51225;-42
2021/12/09 00:29:41;;;;;;;;;1.50;1.50;;;;;20.31;37.21;100121.88;5077177;27;51035;-43
2021/12/09 00:32:07;;;;;;;;;1.25;1.25;;;;;20.29;37.42;100122.13;5086198;27;51787;-42
2021/12/09 00:34:35;;;;;;;;;2.00;2.00;;;;;20.28;36.87;100125.13;5072945;28;52260;-53
2021/12/09 00:37:33;;;;;;;;;2.75;1.00;;;;;20.27;37.01;100127.03;5074289;28;51256;-42
2021/12/09 00:39:51;;;;;;;;;0.25;0.25;;;;;20.25;36.92;100111.84;5062200;28;50952;-41
2021/12/09 00:42:26;;;;;;;;;2.50;1.00;;;;;20.24;37.30;100119.28;5058656;27;51750;-43
2021/12/09 00:44:53;;;;;;;;;0.50;0.50;;;;;20.22;36.87;100124.19;5075708;27;51238;-41
2021/12/09 00:47:19;;;;;;;;;2.00;1.00;;;;;20.22;36.82;100132.44;5094403;27;52609;-42
2021/12/09 00:49:44;;;;;;;;;1.00;1.00;;;;;20.21;37.20;100135.38;5097951;27;51113;-41
2021/12/09 00:52:10;;;;;;;;;2.00;2.00;;;;;20.21;37.26;100132.63;5075355;27;52187;-44
2021/12/09 00:54:36;;;;;;;;;1.75;1.00;;;;;20.18;37.06;100137.53;5074524;28;51035;-42
2021/12/09 00:57:02;;;;;;;;;1.75;1.50;;;;;20.17;37.08;100138.63;5074230;27;51435;-43
2021/12/09 00:59:27;;;;;;;;;3.50;1.75;;;;;20.16;37.42;100139.69;5075323;27;51372;-44
2021/12/09 01:01:53;;;;;;;;;1.00;1.00;;;;;20.15;36.94;100146.28;5073336;28;51367;-44
2021/12/09 01:04:18;;;;;;;;;2.00;0.75;;;;;20.14;37.19;100141.84;5062060;27;51029;-44
2021/12/09 01:06:44;;;;;;;;;1.00;1.00;;;;;20.13;37.06;100144.84;5065014;28;51035;-45
2021/12/09 01:09:09;;;;;;;;;1.00;1.00;;;;;20.13;37.13;100144.84;5077105;27;50909;-41
2021/12/09 01:11:35;;;;;;;;;0.00;0.00;;;;;20.11;36.86;100145.09;5076910;27;50994;-43
2021/12/09 01:14:00;;;;;;;;;0.75;0.75;;;;;20.10;37.34;100139.81;5076898;27;51118;-43
2021/12/09 01:16:26;;;;;;;;;1.00;1.00;;;;;20.09;37.22;100149.97;5066245;27;51057;-41
2021/12/09 01:18:51;;;;;;;;;0.00;0.00;;;;;20.09;37.11;100141.72;5068008;27;51307;-43
2021/12/09 01:21:17;;;;;;;;;0.75;0.75;;;;;20.08;37.23;100136.47;5079932;27;52605;-42
2021/12/09 01:23:42;;;;;;;;;0.00;0.00;;;;;20.08;37.02;100150.19;5093673;27;51032;-41
2021/12/09 01:26:09;;;;;;;;;0.75;0.75;;;;;20.06;37.29;100150.44;5090288;27;51459;-43
2021/12/09 01:28:51;;;;;;;;;2.75;1.00;;;;;20.05;37.14;100154.28;5081121;27;51020;-49
2021/12/09 01:31:27;;;;;;;;;1.00;1.00;;;;;20.04;37.20;100166.34;5066972;27;51351;-45
2021/12/09 01:33:54;;;;;;;;;2.75;0.25;;;;;20.04;37.00;100165.50;5077593;28;50925;-48
2021/12/09 01:36:20;;;;;;;;;0.75;0.50;;;;;20.03;36.88;100164.66;5079867;27;51151;-43
2021/12/09 01:38:46;;;;;;;;;1.50;0.75;;;;;20.02;37.04;100168.50;5063854;28;51227;-44
2021/12/09 01:41:12;;;;;;;;;2.00;0.75;;;;;20.01;37.12;100165.97;5079734;27;51230;-43
2021/12/09 01:43:37;;;;;;;;;0.00;0.00;;;;;20.01;37.19;100169.56;5093265;27;51037;-44
2021/12/09 01:46:06;;;;;;;;;0.75;0.75;;;;;20.00;37.19;100156.03;5060022;28;51023;-44
2021/12/09 01:48:32;;;;;;;;;1.00;1.00;;;;;19.98;37.21;100160.94;5078370;27;51570;-45
2021/12/09 01:50:58;;;;;;;;;1.00;0.25;;;;;19.98;37.23;100174.69;5079170;28;53155;-43
2021/12/09 01:53:23;;;;;;;;;1.00;1.00;;;;;19.96;37.38;100177.69;5083150;27;50968;-43
2021/12/09 01:55:49;;;;;;;;;0.25;0.25;;;;;19.95;36.96;100183.41;5076695;27;51033;-42
2021/12/09 01:58:15;;;;;;;;;1.00;1.00;;;;;19.95;36.94;100183.41;5072404;28;50927;-43
2021/12/09 02:00:40;;;;;;;;;0.00;0.00;;;;;19.94;36.87;100185.31;5090031;27;52871;-44
2021/12/09 02:03:06;;;;;;;;;2.00;2.00;;;;;19.92;37.03;100184.72;5070054;28;51039;-45
2021/12/09 02:05:32;;;;;;;;;0.75;0.75;;;;;19.93;37.38;100180.91;5079029;27;51104;-45
2021/12/09 02:07:58;;;;;;;;;2.00;0.00;;;;;19.92;37.24;100192.13;5079665;27;50880;-43
2021/12/09 02:10:24;;;;;;;;;1.75;0.75;;;;;19.91;37.14;100185.81;5078002;27;50966;-43
2021/12/09 02:12:51;;;;;;;;;0.50;0.25;;;;;19.91;37.20;100190.47;5077667;27;51115;-43
2021/12/09 02:15:19;;;;;;;;;0.75;0.25;;;;;19.89;37.03;100186.00;5077279;27;51165;-44
2021/12/09 02:17:45;;;;;;;;;0.00;0.00;;;;;19.88;37.02;100181.59;5078719;27;51301;-43
2021/12/09 02:20:11;;;;;;;;;0.50;0.50;;;;;19.87;37.03;100185.41;5078605;27;50952;-43
2021/12/09 02:22:36;;;;;;;;;0.75;0.75;;;;;19.87;36.90;100184.56;5078200;28;51142;-43
2021/12/09 02:25:02;;;;;;;;;0.50;0.50;;;;;19.87;37.20;100181.81;5076520;27;51307;-43
2021/12/09 02:27:28;;;;;;;;;0.25;0.00;;;;;19.86;37.00;100177.41;5082545;27;51207;-42
2021/12/09 02:29:55;;;;;;;;;0.00;0.00;;;;;19.85;36.98;100172.97;5080395;27;51033;-44
2021/12/09 02:32:21;;;;;;;;;1.00;0.00;;;;;19.84;37.20;100183.13;5081828;27;51096;-47
2021/12/09 02:34:46;;;;;;;;;0.00;0.00;;;;;19.83;37.05;100186.13;5090487;27;51420;-44
2021/12/09 02:37:13;;;;;;;;;0.25;0.25;;;;;19.83;37.17;100178.72;5075699;27;50956;-43
2021/12/09 02:39:40;;;;;;;;;1.50;0.25;;;;;19.83;36.92;100178.72;5071633;28;50970;-44
2021/12/09 02:42:06;;;;;;;;;0.00;0.00;;;;;19.82;37.33;100187.19;5079529;27;51236;-43
2021/12/09 02:44:32;;;;;;;;;0.00;0.00;;;;;19.80;37.07;100184.69;5078404;28;51081;-43
2021/12/09 02:46:57;;;;;;;;;1.00;0.00;;;;;19.80;37.00;100190.19;5087172;27;51192;-43
2021/12/09 02:49:28;;;;;;;;;0.25;0.25;;;;;19.79;37.51;100193.13;5078474;27;51065;-45
2021/12/09 02:51:56;;;;;;;;;0.25;0.25;;;;;19.78;37.02;100186.81;5077299;27;51309;-43
2021/12/09 02:54:24;;;;;;;;;0.00;0.00;;;;;19.78;37.19;100191.47;5081316;27;51165;-42
2021/12/09 02:56:55;;;;;;;;;1.00;1.00;;;;;19.77;36.96;100174.13;5088784;27;51069;-42
2021/12/09 02:59:21;;;;;;;;;1.00;1.00;;;;;19.77;36.93;100178.81;5076729;27;51688;-43
2021/12/09 03:02:01;;;;;;;;;0.00;0.00;;;;;19.75;36.97;100187.28;5076508;27;51005;-41
2021/12/09 03:04:46;;;;;;;;;1.50;1.00;;;;;19.74;37.18;100202.09;5085798;27;51010;-43
2021/12/09 03:07:18;;;;;;;;;1.00;0.25;;;;;19.74;36.98;100193.84;5091833;27;51155;-43
2021/12/09 03:09:49;;;;;;;;;0.00;0.00;;;;;19.73;37.24;100194.94;5094400;27;51786;-41
2021/12/09 03:12:24;;;;;;;;;1.00;0.00;;;;;19.73;36.91;100202.34;5096577;27;51075;-42
2021/12/09 03:14:51;;;;;;;;;0.00;0.00;;;;;19.72;37.14;100201.50;5033063;27;1175022;-41
2021/12/09 03:17:17;;;;;;;;;0.50;0.00;;;;;19.71;36.82;100202.56;5091420;27;51204;-42
2021/12/09 03:19:43;;;;;;;;;0.00;0.00;;;;;19.71;36.96;100202.56;5078488;27;51900;-44
2021/12/09 03:22:09;;;;;;;;;0.00;0.00;;;;;19.69;37.25;100199.19;5095023;27;50911;-43
2021/12/09 03:24:34;;;;;;;;;1.00;1.00;;;;;19.70;37.34;100200.06;5089103;27;50881;-43
2021/12/09 03:27:00;;;;;;;;;0.00;0.00;;;;;19.68;36.72;100196.69;5085276;27;51245;-51
2021/12/09 03:29:27;;;;;;;;;0.75;0.00;;;;;19.68;37.08;100194.78;5075551;27;51097;-50
2021/12/09 03:31:56;;;;;;;;;0.00;0.00;;;;;19.67;37.22;100204.09;5078541;27;51158;-42
2021/12/09 03:34:25;;;;;;;;;1.50;1.00;;;;;19.67;37.31;100208.75;5078553;27;50946;-43
2021/12/09 03:36:51;;;;;;;;;1.50;0.50;;;;;19.66;37.35;100205.16;5077122;27;51884;-42
2021/12/09 03:39:20;;;;;;;;;0.25;0.25;;;;;19.64;37.11;100201.81;5098103;27;52930;-42
2021/12/09 03:41:50;;;;;;;;;0.00;0.00;;;;;19.65;37.01;100202.66;5078179;27;51842;-44
2021/12/09 03:44:16;;;;;;;;;1.00;1.00;;;;;19.64;37.30;100203.72;5092108;27;51047;-42
2021/12/09 03:46:42;;;;;;;;;0.00;0.00;;;;;19.63;37.12;100208.38;5086806;27;50981;-42
2021/12/09 03:49:08;;;;;;;;;0.00;0.00;;;;;19.62;37.05;100212.19;5079357;27;51032;-43
2021/12/09 03:51:35;;;;;;;;;0.50;0.50;;;;;19.63;37.29;100222.13;5076588;28;51136;-42
2021/12/09 03:54:08;;;;;;;;;0.00;0.00;;;;;19.62;36.98;100214.94;5077019;27;51119;-44
2021/12/09 03:56:35;;;;;;;;;0.00;0.00;;;;;19.62;37.21;100217.69;5094736;27;51030;-43
2021/12/09 03:59:01;;;;;;;;;0.00;0.00;;;;;19.60;37.02;100220.69;5071954;27;51954;-43
2021/12/09 04:01:26;;;;;;;;;0.50;0.50;;;;;19.59;37.12;100210.75;5074296;28;51040;-43
2021/12/09 04:03:52;;;;;;;;;0.25;0.25;;;;;19.59;37.27;100221.75;5064189;28;51097;-43
2021/12/09 04:06:17;;;;;;;;;0.50;0.50;;;;;19.58;37.22;100220.06;5083911;27;50999;-45
2021/12/09 04:08:43;;;;;;;;;0.00;0.00;;;;;19.58;37.17;100231.03;5076400;27;51104;-43
2021/12/09 04:11:10;;;;;;;;;0.00;0.00;;;;;19.57;37.38;100232.13;5057902;28;50858;-42
2021/12/09 04:13:37;;;;;;;;;0.25;0.25;;;;;19.58;37.32;100233.78;5075008;27;50918;-43
2021/12/09 04:16:04;;;;;;;;;0.00;0.00;;;;;19.57;37.17;100234.03;5061212;28;51383;-43
2021/12/09 04:18:30;;;;;;;;;1.00;1.00;;;;;19.55;37.26;100234.25;5075904;27;52646;-49
2021/12/09 04:20:55;;;;;;;;;0.50;0.00;;;;;19.55;37.12;100238.88;5069203;28;50913;-43
2021/12/09 04:23:21;;;;;;;;;0.00;0.00;;;;;19.55;37.22;100241.63;5069544;28;51042;-41
2021/12/09 04:25:46;;;;;;;;;0.00;0.00;;;;;19.54;37.29;100235.28;5078104;27;50858;-44
2021/12/09 04:28:12;;;;;;;;;0.00;0.00;;;;;19.53;37.10;100228.13;5098104;27;51796;-42
2021/12/09 04:30:37;;;;;;;;;0.00;0.00;;;;;19.52;37.30;100237.44;5091450;27;50939;-44
2021/12/09 04:33:03;;;;;;;;;0.25;0.25;;;;;19.52;37.11;100236.59;5108313;27;50941;-42
2021/12/09 04:35:28;;;;;;;;;0.75;0.75;;;;;19.51;37.35;100230.28;5077876;27;51197;-44
2021/12/09 04:37:53;;;;;;;;;0.50;0.00;;;;;19.50;37.34;100230.50;5058111;27;52059;-42
2021/12/09 04:40:19;;;;;;;;;0.00;0.00;;;;;19.49;36.95;100232.41;5057749;28;51005;-43
2021/12/09 04:42:45;;;;;;;;;1.00;0.00;;;;;19.49;37.14;100226.09;5066331;28;51015;-43
2021/12/09 04:45:11;;;;;;;;;1.00;0.00;;;;;19.48;37.06;100230.72;5093454;27;51061;-42
2021/12/09 04:47:37;;;;;;;;;1.00;0.00;;;;;19.48;37.16;100236.22;5075911;27;52098;-42
2021/12/09 04:50:05;;;;;;;;;0.50;0.00;;;;;19.48;37.08;100240.88;5084139;27;51417;-43
2021/12/09 04:52:30;;;;;;;;;0.00;0.00;;;;;19.46;37.19;100235.59;5085247;27;51076;-47
2021/12/09 04:54:56;;;;;;;;;2.50;1.50;;;;;19.45;37.02;100233.94;5083923;27;50996;-44
2021/12/09 04:57:21;;;;;;;;;0.00;0.00;;;;;19.45;36.90;100236.69;5082160;27;51890;-43
2021/12/09 04:59:48;;;;;;;;;0.00;0.00;;;;;19.45;37.22;100244.06;5085142;27;51127;-44
2021/12/09 05:02:25;;;;;;;;;2.00;0.00;;;;;19.44;37.35;100240.50;5074315;27;51153;-43
2021/12/09 05:04:50;;;;;;;;;0.00;0.00;;;;;19.44;37.19;100232.25;5076262;27;51053;-44
2021/12/09 05:07:16;;;;;;;;;0.00;0.00;;;;;19.43;37.33;100238.81;5076505;28;52111;-43
2021/12/09 05:09:49;;;;;;;;;1.00;0.75;;;;;19.42;36.98;100242.63;5077256;27;51065;-44
2021/12/09 05:12:16;;;;;;;;;0.00;0.00;;;;;19.42;37.05;100242.63;5077762;27;51204;-44
2021/12/09 05:14:44;;;;;;;;;0.00;0.00;;;;;19.42;37.26;100247.28;5067708;27;51095;-43
2021/12/09 05:17:11;;;;;;;;;0.00;0.00;;;;;19.40;37.14;100236.53;5072607;28;51087;-43
2021/12/09 05:19:36;;;;;;;;;0.75;0.75;;;;;19.41;37.01;100245.63;5061299;27;51253;-42
2021/12/09 05:22:02;;;;;;;;;0.00;0.00;;;;;19.40;37.18;100252.19;5057227;28;50886;-43
2021/12/09 05:24:27;;;;;;;;;0.00;0.00;;;;;19.39;37.00;100237.63;5070468;28;51113;-42
2021/12/09 05:26:55;;;;;;;;;0.25;0.00;;;;;19.39;37.40;100256.00;5076402;27;51109;-45
2021/12/09 05:29:27;;;;;;;;;0.00;0.00;;;;;19.37;37.00;100245.22;5093058;27;51393;-48
2021/12/09 05:32:08;;;;;;;;;0.00;0.00;;;;;19.39;37.29;100250.50;5063106;28;51044;-42
2021/12/09 05:34:45;;;;;;;;;0.00;0.00;;;;;19.38;37.01;100240.56;5070020;28;50969;-42
2021/12/09 05:37:20;;;;;;;;;0.00;0.00;;;;;19.36;37.05;100243.53;5086486;27;53489;-46
2021/12/09 05:39:47;;;;;;;;;0.75;0.75;;;;;19.35;37.13;100239.13;5075924;27;50915;-47
2021/12/09 05:42:15;;;;;;;;;0.00;0.00;;;;;19.35;37.26;100246.53;5077337;27;50908;-49
2021/12/09 05:44:41;;;;;;;;;2.00;1.00;;;;;19.34;37.12;100253.91;5077128;27;51225;-44
2021/12/09 05:47:07;;;;;;;;;2.00;0.00;;;;;19.35;37.02;100254.75;5068067;28;51917;-43
2021/12/09 05:49:38;;;;;;;;;1.00;1.00;;;;;19.33;37.30;100249.50;5076009;27;51117;-42
2021/12/09 05:52:05;;;;;;;;;0.00;0.00;;;;;19.32;37.20;100254.16;5092963;27;51145;-44
2021/12/09 05:54:30;;;;;;;;;0.00;0.00;;;;;19.31;37.27;100255.22;5068739;28;51077;-43
2021/12/09 05:56:56;;;;;;;;;1.50;0.00;;;;;19.31;37.17;100262.63;5075989;27;51322;-43
2021/12/09 05:59:21;;;;;;;;;1.00;0.00;;;;;19.31;37.20;100268.13;5064268;27;51105;-42
2021/12/09 06:01:47;;;;;;;;;0.00;0.00;;;;;19.30;37.01;100266.44;5068445;27;51134;-41
2021/12/09 06:04:13;;;;;;;;;0.00;0.00;;;;;19.29;37.28;100262.03;5079338;27;51545;-42
2021/12/09 06:06:39;;;;;;;;;0.00;0.00;;;;;19.29;37.28;100273.84;5077912;27;51049;-43
2021/12/09 06:09:06;;;;;;;;;0.00;0.00;;;;;19.29;37.31;100278.50;5079755;27;51216;-45
2021/12/09 06:11:32;;;;;;;;;0.50;0.00;;;;;19.28;37.33;100272.16;5087410;27;50896;-46
2021/12/09 06:13:57;;;;;;;;;0.00;0.00;;;;;19.28;37.25;100285.91;5071422;27;50888;-43
2021/12/09 06:16:24;;;;;;;;;1.75;0.25;;;;;19.26;36.42;100277.03;5079752;28;52716;-43
2021/12/09 06:18:50;;;;;;;;;1.00;1.00;;;;;19.23;35.73;100276.66;5070022;27;51199;-41
2021/12/09 06:21:16;;;;;;;;;1.50;1.50;;;;;19.18;35.45;100284.75;5079981;27;50967;-43
2021/12/09 06:23:42;;;;;;;;;2.75;2.50;;;;;19.12;34.97;100291.13;5080061;27;51035;-45
2021/12/09 06:26:07;;;;;;;;;2.00;2.00;;;;;19.04;35.09;100287.59;5076920;27;51014;-43
2021/12/09 06:28:34;;;;;;;;;2.25;2.25;;;;;19.00;34.85;100294.63;5099280;27;50993;-44
2021/12/09 06:31:00;;;;;;;;;1.50;1.50;;;;;18.94;34.44;100301.00;5084415;27;50993;-44
2021/12/09 06:33:25;;;;;;;;;2.75;2.75;;;;;18.89;34.44;100297.28;5076479;28;51275;-43
2021/12/09 06:35:51;;;;;;;;;3.00;2.00;;;;;18.83;34.22;100292.66;5066144;28;52664;-42
2021/12/09 06:38:17;;;;;;;;;2.00;2.00;;;;;18.79;34.08;100292.28;5074312;27;51525;-45
2021/12/09 06:40:44;;;;;;;;;2.00;2.00;;;;;18.76;34.04;100287.25;5076603;27;51120;-43
2021/12/09 06:43:11;;;;;;;;;1.75;1.75;;;;;18.79;34.05;100285.97;5076686;27;51328;-46
2021/12/09 06:45:36;;;;;;;;;1.00;1.00;;;;;18.84;34.28;100284.19;5075947;27;51251;-45
2021/12/09 06:48:02;;;;;;;;;1.00;1.00;;;;;18.94;33.99;100302.91;5074399;27;51633;-42
2021/12/09 06:50:28;;;;;;;;;2.00;1.50;;;;;19.02;34.40;100294.38;5094869;27;51264;-43
2021/12/09 06:52:53;;;;;;;;;1.00;1.00;;;;;19.11;34.50;100297.69;5078973;27;51079;-45
2021/12/09 06:55:20;;;;;;;;;2.25;1.00;;;;;19.20;34.65;100301.81;5078375;27;51708;-44
2021/12/09 06:57:46;;;;;;;;;2.00;2.00;;;;;19.28;34.70;100305.13;5076277;27;52398;-41
2021/12/09 07:00:23;;;;;;;;;1.75;1.75;;;;;19.36;34.55;100309.47;5078080;27;50849;-41
2021/12/09 07:02:49;;;;;;;;;2.50;1.00;;;;;19.45;34.59;100310.84;5076919;27;51348;-44
2021/12/09 07:05:16;;;;;;;;;1.50;1.50;;;;;19.52;34.79;100306.13;5076783;27;51059;-41
2021/12/09 07:07:41;;;;;;;;;3.00;0.00;;;;;19.60;34.82;100313.25;5076904;28;50995;-41
2021/12/09 07:10:09;;;;;;;;;1.00;1.00;;;;;19.69;34.86;100316.50;5076645;27;51169;-44
2021/12/09 07:12:35;;;;;;;;;1.00;1.00;;;;;19.77;35.16;100313.47;5071944;27;50952;-44
2021/12/09 07:15:02;;;;;;;;;0.75;0.75;;;;;19.85;35.12;100318.66;5072816;27;51169;-43
2021/12/09 07:17:28;;;;;;;;;1.25;1.00;;;;;19.91;34.88;100309.50;5074661;27;51193;-42
2021/12/09 07:19:53;;;;;;;;;2.25;0.50;;;;;19.97;35.29;100311.31;5100650;27;51352;-44
2021/12/09 07:22:18;;;;;;;;;2.00;0.00;;;;;20.03;35.02;100310.38;5083490;27;51001;-42
2021/12/09 07:24:45;;;;;;;;;3.00;1.50;;;;;20.10;35.18;100307.53;5078822;27;53315;-44
2021/12/09 07:27:10;;;;;;;;;1.00;1.00;;;;;20.14;35.64;100306.00;5085463;27;51492;-42
2021/12/09 07:29:36;;;;;;;;;2.75;1.25;;;;;20.19;36.14;100312.47;5074734;28;51107;-43
2021/12/09 07:32:02;;;;;;;;;1.00;1.00;;;;;20.23;35.75;100312.88;5073412;27;51402;-46
2021/12/09 07:34:27;;;;;;;;;1.25;1.00;;;;;20.27;35.95;100310.47;5076339;27;52902;-44
2021/12/09 07:36:52;;;;;;;;;1.25;1.25;;;;;20.30;36.47;100307.25;5072750;28;51094;-46
2021/12/09 07:39:18;;;;;;;;;1.00;1.00;;;;;20.33;36.16;100307.63;5074230;27;51727;-44
2021/12/09 07:41:43;;;;;;;;;0.50;0.50;;;;;20.37;36.50;100313.50;5074062;27;51356;-42
2021/12/09 07:44:10;;;;;;;;;1.75;1.00;;;;;20.41;36.61;100317.44;5063591;27;51226;-43
2021/12/09 07:46:36;;;;;;;;;3.00;2.00;;;;;20.44;36.35;100319.78;5073793;27;51112;-42
2021/12/09 07:49:02;;;;;;;;;2.50;2.50;;;;;20.47;36.54;100313.81;5065609;27;51023;-47
2021/12/09 07:51:28;;;;;;;;;4.75;2.00;;;;;20.52;36.61;100316.66;5074368;27;51379;-43
2021/12/09 07:53:53;;;;;;;;;5.00;2.25;;;;;20.56;36.66;100317.06;5076165;27;51003;-44
2021/12/09 07:56:19;;;;;;;;;3.00;1.25;;;;;20.60;36.49;100315.50;5069624;27;50997;-45
2021/12/09 07:58:45;;;;;;;;;2.00;1.00;;;;;20.65;36.95;100312.91;5075336;27;51122;-43
2021/12/09 08:01:11;;;;;;;;;5.00;2.00;;;;;20.70;36.91;100321.28;5074843;27;51334;-43
2021/12/09 08:03:37;;;;;;;;;2.50;2.00;;;;;20.74;37.19;100314.25;5074429;27;51854;-44
2021/12/09 08:06:03;;;;;;;;;1.75;1.75;;;;;20.71;36.89;100312.78;5080876;27;51194;-43
2021/12/09 08:08:28;;;;;;;;;4.50;2.00;;;;;20.66;36.89;100306.31;5077060;27;51069;-45
2021/12/09 08:10:54;;;;;;;;;3.00;2.00;;;;;20.58;37.32;100324.00;5073996;27;51065;-42
2021/12/09 08:13:21;;;;;;;;;3.50;2.00;;;;;20.51;37.65;100320.50;5085550;27;51047;-48
2021/12/09 08:15:49;;;;;;;;;4.25;3.25;;;;;20.44;38.20;100319.78;5068493;27;51042;-44
2021/12/09 08:20:45;;;;;;;;;2.25;2.25;;;;;20.30;38.07;100337.50;5088703;27;51219;-45
2021/12/09 08:23:10;;;;;;;;;2.00;1.00;;;;;20.23;38.45;100328.53;5077487;27;51136;-44
2021/12/09 08:25:36;;;;;;;;;4.50;1.25;;;;;20.18;38.24;100324.53;5078454;27;51040;-43
2021/12/09 08:28:02;;;;;;;;;3.00;2.50;;;;;20.12;38.85;100325.50;5077703;27;52091;-43
2021/12/09 08:30:28;;;;;;;;;2.75;2.50;;;;;20.07;38.68;100319.00;5077350;27;50915;-43
2021/12/09 08:32:54;;;;;;;;;1.50;1.00;;;;;20.02;38.94;100319.72;5076438;27;51063;-43
2021/12/09 08:35:21;;;;;;;;;2.00;1.50;;;;;19.99;39.06;100319.31;5079714;27;50941;-43
2021/12/09 08:37:48;;;;;;;;;2.00;2.00;;;;;19.94;38.90;100325.53;5080842;27;51207;-43
2021/12/09 08:40:16;;;;;;;;;2.00;2.00;;;;;19.89;39.51;100317.09;5087569;27;50988;-45
2021/12/09 08:42:42;;;;;;;;;3.75;1.00;;;;;19.86;39.38;100321.16;5093119;27;50927;-47
2021/12/09 08:45:10;;;;;;;;;1.25;1.00;;;;;19.82;39.24;100319.13;5083609;27;51406;-44
2021/12/09 08:47:38;;;;;;;;;2.00;1.00;;;;;19.77;39.48;100322.53;5078236;27;51179;-43
2021/12/09 08:50:06;;;;;;;;;2.00;2.00;;;;;19.74;39.53;100323.00;5086008;27;51254;-45
2021/12/09 08:52:32;;;;;;;;;1.25;1.25;;;;;19.71;39.63;100328.13;5079611;27;54399;-44
2021/12/09 08:54:57;;;;;;;;;4.75;1.75;;;;;19.66;39.77;100337.06;5089692;27;50968;-45
2021/12/09 08:57:23;;;;;;;;;6.00;2.50;;;;;19.64;39.52;100338.34;5079882;27;50948;-44
2021/12/09 08:59:49;;;;;;;;;4.00;2.00;;;;;19.61;39.56;100345.16;5078145;27;51382;-46
2021/12/09 09:02:15;;;;;;;;;3.00;1.00;;;;;19.57;40.02;100344.75;5091099;27;51075;-46
2021/12/09 09:04:41;;;;;;;;;2.00;1.00;;;;;19.55;39.70;100357.88;5089026;27;51269;-44
2021/12/09 09:07:07;;;;;;;;;3.25;2.00;;;;;19.53;40.12;100365.50;5076993;27;50981;-48
2021/12/09 09:09:34;;;;;;;;;2.00;2.00;;;;;19.50;40.25;100360.47;5076751;27;51337;-44
2021/12/09 09:12:03;;;;;;;;;1.25;1.25;;;;;19.48;39.96;100365.31;5076669;27;52620;-45
2021/12/09 09:14:28;;;;;;;;;4.75;2.75;;;;;19.45;40.23;100374.03;5082296;27;51217;-46
2021/12/09 09:16:54;;;;;;;;;2.00;2.00;;;;;19.43;40.45;100367.06;5093170;27;51314;-44
2021/12/09 09:19:19;;;;;;;;;1.50;1.50;;;;;19.39;40.13;100368.63;5081577;27;51406;-44
2021/12/09 09:21:44;;;;;;;;;2.75;0.75;;;;;19.39;40.30;100380.44;5073117;27;51359;-42
2021/12/09 09:24:10;;;;;;;;;1.00;1.00;;;;;19.36;40.29;100380.88;5070517;27;51259;-45
2021/12/09 09:26:37;;;;;;;;;1.00;1.00;;;;;19.33;40.54;100386.81;5081293;27;51497;-44
2021/12/09 09:29:03;;;;;;;;;1.00;1.00;;;;;19.33;40.35;100386.81;5078278;27;51315;-42
2021/12/09 09:31:32;;;;;;;;;1.00;1.00;;;;;19.32;40.25;100375.00;5073495;27;51169;-44
2021/12/09 09:34:00;;;;;;;;;2.00;2.00;;;;;19.33;40.24;100378.56;5070441;27;51195;-44
2021/12/09 09:36:25;;;;;;;;;1.75;1.25;;;;;19.35;39.72;100384.69;5100687;27;52016;-45
2021/12/09 09:38:55;;;;;;;;;3.00;1.75;;;;;19.39;39.72;100380.44;5067306;27;51058;-43
2021/12/09 09:41:25;;;;;;;;;1.50;1.50;;;;;19.46;39.28;100389.44;5066537;27;51112;-43
2021/12/09 09:43:57;;;;;;;;;2.00;1.25;;;;;19.58;39.08;100390.38;5075397;27;51086;-46
2021/12/09 09:46:30;;;;;;;;;1.00;1.00;;;;;19.69;39.29;100393.44;5071041;27;51097;-43
2021/12/09 09:48:58;;;;;;;;;1.00;1.00;;;;;19.79;39.02;100396.50;5068442;27;51190;-46
2021/12/09 09:51:26;;;;;;;;;1.25;1.25;;;;;19.89;38.84;100396.81;5075579;27;52151;-45
2021/12/09 09:53:52;;;;;;;;;1.25;1.25;;;;;19.99;38.86;100399.03;5070278;27;51704;-44
2021/12/09 09:56:21;;;;;;;;;2.00;2.00;;;;;20.10;38.52;100398.25;5075215;27;52981;-45
2021/12/09 09:58:51;;;;;;;;;3.50;2.00;;;;;20.21;38.90;100407.66;5072238;27;51312;-46
2021/12/09 10:01:17;;;;;;;;;2.00;2.00;;;;;20.29;38.61;100399.94;5075510;27;51756;-45
2021/12/09 10:03:46;;;;;;;;;0.75;0.75;;;;;20.38;38.39;100404.03;5073740;27;51230;-47
2021/12/09 10:06:14;;;;;;;;;1.00;1.00;;;;;20.49;38.67;100396.09;5075004;27;51131;-46
2021/12/09 10:08:40;;;;;;;;;2.75;2.50;;;;;20.58;38.35;100403.81;5075615;27;51555;-46
2021/12/09 10:11:07;;;;;;;;;1.00;1.00;;;;;20.68;38.41;100406.00;5074554;27;52266;-46
2021/12/09 10:13:36;;;;;;;;;1.25;1.00;;;;;20.77;38.38;100403.75;5073496;27;51427;-43
2021/12/09 10:16:05;;;;;;;;;2.00;2.00;;;;;20.85;38.52;100392.41;5073229;27;51356;-45
2021/12/09 10:18:43;;;;;;;;;1.00;1.00;;;;;20.95;38.07;100392.69;5075016;27;51110;-44
2021/12/09 10:21:18;;;;;;;;;4.25;1.75;;;;;21.02;38.08;100388.72;5077950;27;51888;-44
2021/12/09 10:23:46;;;;;;;;;3.75;1.50;;;;;21.12;38.19;100387.28;5075788;27;51467;-46
2021/12/09 10:26:14;;;;;;;;;2.00;1.00;;;;;21.20;38.49;100384.19;5082053;27;51057;-43
2021/12/09 10:28:44;;;;;;;;;1.50;1.50;;;;;21.26;37.84;100375.88;5074162;27;51120;-44
2021/12/09 10:31:14;;;;;;;;;1.00;1.00;;;;;21.35;37.79;100375.47;5068987;27;52617;-46
2021/12/09 10:37:03;;;;;;;;;2.00;2.00;;;;;21.43;38.18;100375.13;5064606;27;51158;-46
2021/12/09 10:39:33;;;;;;;;;3.00;3.00;;;;;21.40;38.06;100370.94;5074102;27;51097;-46
2021/12/09 10:42:02;;;;;;;;;1.00;1.00;;;;;21.36;38.00;100366.13;5073433;27;51853;-43
2021/12/09 10:44:40;;;;;;;;;1.00;1.00;;;;;21.30;37.84;100363.28;5074831;27;51161;-46
2021/12/09 10:47:13;;;;;;;;;2.25;1.00;;;;;21.24;37.80;100366.94;5072628;28;52179;-47
2021/12/09 10:50:10;;;;;;;;;3.00;1.75;;;;;21.21;38.12;100356.41;5071355;27;51123;-49
2021/12/09 10:52:49;;;;;;;;;1.00;1.00;;;;;21.18;38.03;100356.06;5078031;27;52893;-43
2021/12/09 10:55:23;;;;;;;;;1.25;1.25;;;;;21.20;38.06;100353.91;5073121;27;51130;-44
2021/12/09 10:58:11;;;;;;;;;2.50;1.00;;;;;21.26;38.27;100348.31;5077724;27;51211;-43
2021/12/09 11:00:44;;;;;;;;;1.00;1.00;;;;;21.35;37.87;100346.00;5073090;27;51178;-46
2021/12/09 11:03:11;;;;;;;;;2.00;1.50;;;;;21.43;38.13;100350.34;5072888;27;51063;-42
2021/12/09 11:05:53;;;;;;;;;1.75;1.75;;;;;21.51;37.96;100348.06;5073302;27;51445;-45
2021/12/09 11:08:39;;;;;;;;;1.00;1.00;;;;;21.59;37.70;100347.69;5072270;27;51277;-43
2021/12/09 11:11:12;;;;;;;;;2.00;1.00;;;;;21.66;37.42;100339.28;5075146;27;51367;-45
2021/12/09 11:13:44;;;;;;;;;1.50;1.00;;;;;21.72;37.23;100335.56;5071865;27;51982;-44
2021/12/09 11:16:10;;;;;;;;;3.00;2.00;;;;;21.79;37.88;100333.53;5069553;27;51215;-44
2021/12/09 11:18:41;;;;;;;;;1.00;1.00;;;;;21.87;37.27;100335.03;5073815;27;51460;-44
2021/12/09 11:21:29;;;;;;;;;1.25;1.25;;;;;21.87;37.52;100330.34;5074650;27;51058;-45
2021/12/09 11:24:10;;;;;;;;;1.00;1.00;;;;;21.85;37.42;100323.41;5075961;27;51862;-46
2021/12/09 11:27:10;;;;;;;;;3.50;1.75;;;;;21.79;37.50;100322.50;5070400;27;51734;-45
2021/12/09 11:29:42;;;;;;;;;1.25;1.00;;;;;21.72;37.97;100318.19;5076968;27;51561;-44
2021/12/09 11:35:19;;;;;;;;;3.00;1.25;;;;;21.61;38.32;100323.47;5075595;27;51087;-45